WIF21E EDDH-ENBR
Flight info
| Callsign | WIF21E |
|---|---|
| Flight time | 1h 40m |
| Altitude | 24000 |
| Route | ELSOB3C/05 ELSOB Y348 OMWEG DCT BADOS DCT GIKOG DCT ATTUS P992 LINVI DCT BADAB |
| Aircraft | DH8D/M-SDE2E3FGRY/H |
Departure
| Time | 2026-05-07 10:50 |
|---|---|
| Airport | Hamburg Helmut Schmidt Airport (EDDH) |
Arrival
| Time | 2026-05-07 12:30 |
|---|---|
| Airport | Bergen Airport, Flesland (ENBR) |
| Time | Latitude | Longitude | Altitude | Speed | Heading |
|---|---|---|---|---|---|
| 2026-05-07 10:29 | 53.63123 | 10.00052 | 63 ft | 0 kts | 141° |
| 2026-05-07 10:41 | 53.63141 | 10.00026 | 63 ft | 5 kts | 140° |
| 2026-05-07 10:41 | 53.63170 | 10.00022 | 63 ft | 3 kts | 213° |
| 2026-05-07 10:41 | 53.63180 | 10.00036 | 63 ft | 0 kts | 231° |
| 2026-05-07 10:43 | 53.63179 | 10.00034 | 63 ft | 2 kts | 231° |
| 2026-05-07 10:43 | 53.63148 | 9.99972 | 63 ft | 8 kts | 230° |
| 2026-05-07 10:44 | 53.63111 | 9.99899 | 63 ft | 8 kts | 222° |
| 2026-05-07 10:44 | 53.63060 | 9.99901 | 63 ft | 7 kts | 153° |
| 2026-05-07 10:44 | 53.63000 | 9.99954 | 63 ft | 11 kts | 153° |
| 2026-05-07 10:44 | 53.62927 | 10.00016 | 63 ft | 11 kts | 153° |
| 2026-05-07 10:45 | 53.62861 | 10.00023 | 63 ft | 9 kts | 214° |
| 2026-05-07 10:45 | 53.62805 | 9.99963 | 63 ft | 9 kts | 210° |
| 2026-05-07 10:45 | 53.62741 | 9.99904 | 63 ft | 15 kts | 208° |
| 2026-05-07 10:45 | 53.62651 | 9.99805 | 63 ft | 15 kts | 232° |
| 2026-05-07 10:46 | 53.62624 | 9.99640 | 63 ft | 14 kts | 259° |
| 2026-05-07 10:46 | 53.62606 | 9.99478 | 63 ft | 13 kts | 260° |
| 2026-05-07 10:46 | 53.62589 | 9.99327 | 63 ft | 13 kts | 259° |
| 2026-05-07 10:46 | 53.62572 | 9.99179 | 63 ft | 12 kts | 259° |
| 2026-05-07 10:47 | 53.62556 | 9.99035 | 63 ft | 12 kts | 259° |
| 2026-05-07 10:47 | 53.62540 | 9.98894 | 63 ft | 12 kts | 258° |
| 2026-05-07 10:47 | 53.62524 | 9.98757 | 63 ft | 11 kts | 260° |
| 2026-05-07 10:47 | 53.62518 | 9.98621 | 63 ft | 11 kts | 300° |
| 2026-05-07 10:48 | 53.62585 | 9.98557 | 63 ft | 10 kts | 334° |
| 2026-05-07 10:48 | 53.62645 | 9.98496 | 63 ft | 10 kts | 322° |
| 2026-05-07 10:48 | 53.62698 | 9.98421 | 63 ft | 9 kts | 319° |
| 2026-05-07 10:48 | 53.62747 | 9.98350 | 63 ft | 9 kts | 320° |
| 2026-05-07 10:49 | 53.62790 | 9.98323 | 63 ft | 2 kts | 46° |
| 2026-05-07 10:49 | 53.62833 | 9.98410 | 63 ft | 38 kts | 52° |
| 2026-05-07 10:49 | 53.63192 | 9.99135 | 64 ft | 118 kts | 49° |
| 2026-05-07 10:49 | 53.63757 | 10.00373 | 392 ft | 138 kts | 58° |
| 2026-05-07 10:50 | 53.64298 | 10.01627 | 1110 ft | 136 kts | 54° |
| 2026-05-07 10:50 | 53.64887 | 10.02896 | 1748 ft | 145 kts | 54° |
| 2026-05-07 10:50 | 53.65530 | 10.04248 | 2460 ft | 151 kts | 53° |
| 2026-05-07 10:50 | 53.66191 | 10.05605 | 3205 ft | 155 kts | 53° |
| 2026-05-07 10:51 | 53.66871 | 10.06987 | 3975 ft | 157 kts | 52° |
| 2026-05-07 10:51 | 53.67576 | 10.08408 | 4679 ft | 164 kts | 52° |
| 2026-05-07 10:51 | 53.68314 | 10.09888 | 5332 ft | 173 kts | 51° |
| 2026-05-07 10:51 | 53.69144 | 10.11438 | 5977 ft | 183 kts | 42° |
| 2026-05-07 10:52 | 53.70356 | 10.12061 | 6517 ft | 199 kts | 356° |
| 2026-05-07 10:52 | 53.71584 | 10.10885 | 7045 ft | 217 kts | 311° |
| 2026-05-07 10:52 | 53.72340 | 10.08630 | 7724 ft | 224 kts | 298° |
| 2026-05-07 10:52 | 53.73095 | 10.06320 | 8327 ft | 230 kts | 307° |
| 2026-05-07 10:53 | 53.74092 | 10.04211 | 8953 ft | 233 kts | 311° |
| 2026-05-07 10:53 | 53.75127 | 10.02117 | 9614 ft | 236 kts | 311° |
| 2026-05-07 10:53 | 53.76186 | 9.99969 | 10311 ft | 238 kts | 311° |
| 2026-05-07 10:53 | 53.77241 | 9.97823 | 10986 ft | 240 kts | 310° |
| 2026-05-07 10:54 | 53.78296 | 9.95673 | 11679 ft | 241 kts | 310° |
| 2026-05-07 10:54 | 53.79366 | 9.93485 | 12382 ft | 242 kts | 310° |
| 2026-05-07 10:54 | 53.80430 | 9.91307 | 13069 ft | 243 kts | 310° |
| 2026-05-07 10:54 | 53.81488 | 9.89138 | 13744 ft | 244 kts | 310° |
| 2026-05-07 10:55 | 53.82570 | 9.86918 | 14458 ft | 245 kts | 310° |
| 2026-05-07 10:55 | 53.83641 | 9.84716 | 15139 ft | 246 kts | 310° |
| 2026-05-07 10:55 | 53.84723 | 9.82491 | 15811 ft | 247 kts | 309° |
| 2026-05-07 10:55 | 53.85813 | 9.80245 | 16488 ft | 248 kts | 309° |
| 2026-05-07 10:56 | 53.86895 | 9.78015 | 17154 ft | 249 kts | 309° |
| 2026-05-07 10:56 | 53.87985 | 9.75766 | 17820 ft | 250 kts | 309° |
| 2026-05-07 10:56 | 53.89086 | 9.73493 | 18493 ft | 250 kts | 309° |
| 2026-05-07 10:56 | 53.90184 | 9.71222 | 19162 ft | 251 kts | 309° |
| 2026-05-07 10:57 | 53.91280 | 9.68954 | 19820 ft | 252 kts | 309° |
| 2026-05-07 10:57 | 53.92388 | 9.66659 | 20482 ft | 253 kts | 309° |
| 2026-05-07 10:57 | 53.93500 | 9.64352 | 21141 ft | 254 kts | 308° |
| 2026-05-07 10:57 | 53.94607 | 9.62057 | 21786 ft | 256 kts | 308° |
| 2026-05-07 10:58 | 53.95724 | 9.59736 | 22430 ft | 257 kts | 308° |
| 2026-05-07 10:58 | 53.96855 | 9.57386 | 23073 ft | 258 kts | 308° |
| 2026-05-07 10:58 | 53.97980 | 9.55045 | 23699 ft | 260 kts | 308° |
| 2026-05-07 10:58 | 53.99170 | 9.52564 | 23972 ft | 278 kts | 308° |
| 2026-05-07 10:59 | 54.00467 | 9.49995 | 24038 ft | 300 kts | 315° |
| 2026-05-07 10:59 | 54.02175 | 9.47944 | 24063 ft | 306 kts | 328° |
| 2026-05-07 10:59 | 54.04024 | 9.46148 | 24059 ft | 311 kts | 329° |
| 2026-05-07 10:59 | 54.05928 | 9.44308 | 24056 ft | 315 kts | 329° |
| 2026-05-07 11:00 | 54.07824 | 9.42468 | 24054 ft | 319 kts | 329° |
| 2026-05-07 11:00 | 54.09769 | 9.40572 | 24054 ft | 321 kts | 329° |
| 2026-05-07 11:00 | 54.11715 | 9.38667 | 24055 ft | 324 kts | 329° |
| 2026-05-07 11:00 | 54.13669 | 9.36749 | 24055 ft | 326 kts | 329° |
| 2026-05-07 11:01 | 54.15617 | 9.34832 | 24056 ft | 328 kts | 328° |
| 2026-05-07 11:01 | 54.17578 | 9.32897 | 24057 ft | 329 kts | 328° |
| 2026-05-07 11:01 | 54.19577 | 9.30921 | 24057 ft | 330 kts | 328° |
| 2026-05-07 11:01 | 54.21555 | 9.28962 | 24059 ft | 331 kts | 328° |
| 2026-05-07 11:02 | 54.23533 | 9.26999 | 24057 ft | 332 kts | 328° |
| 2026-05-07 11:02 | 54.25519 | 9.25027 | 24060 ft | 333 kts | 328° |
| 2026-05-07 11:02 | 54.27528 | 9.23029 | 24061 ft | 333 kts | 328° |
| 2026-05-07 11:02 | 54.29537 | 9.21028 | 24062 ft | 333 kts | 328° |
| 2026-05-07 11:03 | 54.31522 | 9.19049 | 24062 ft | 334 kts | 328° |
| 2026-05-07 11:03 | 54.33507 | 9.17068 | 24063 ft | 334 kts | 328° |
| 2026-05-07 11:03 | 54.35521 | 9.15054 | 24060 ft | 334 kts | 328° |
| 2026-05-07 11:03 | 54.37570 | 9.13169 | 24055 ft | 335 kts | 334° |
| 2026-05-07 11:04 | 54.39710 | 9.11706 | 24062 ft | 335 kts | 338° |
| 2026-05-07 11:04 | 54.41883 | 9.10292 | 24062 ft | 335 kts | 338° |
| 2026-05-07 11:04 | 54.44064 | 9.08871 | 24060 ft | 335 kts | 338° |
| 2026-05-07 11:04 | 54.46233 | 9.07452 | 24061 ft | 335 kts | 338° |
| 2026-05-07 11:05 | 54.48394 | 9.06034 | 24062 ft | 335 kts | 338° |
| 2026-05-07 11:05 | 54.50581 | 9.04594 | 24061 ft | 335 kts | 338° |
| 2026-05-07 11:05 | 54.52734 | 9.03174 | 24064 ft | 335 kts | 338° |
| 2026-05-07 11:05 | 54.54904 | 9.01739 | 24062 ft | 335 kts | 338° |
| 2026-05-07 11:06 | 54.57066 | 9.00307 | 24061 ft | 335 kts | 338° |
| 2026-05-07 11:06 | 54.59234 | 8.98869 | 24062 ft | 335 kts | 338° |
| 2026-05-07 11:06 | 54.61424 | 8.97414 | 24061 ft | 335 kts | 338° |
| 2026-05-07 11:06 | 54.63579 | 8.95979 | 24063 ft | 335 kts | 338° |
| 2026-05-07 11:07 | 54.65768 | 8.94522 | 24064 ft | 335 kts | 338° |
| 2026-05-07 11:07 | 54.67914 | 8.93094 | 24061 ft | 335 kts | 338° |
| 2026-05-07 11:07 | 54.70105 | 8.91636 | 24060 ft | 335 kts | 338° |
| 2026-05-07 11:07 | 54.72270 | 8.90192 | 24064 ft | 335 kts | 338° |
| 2026-05-07 11:08 | 54.74439 | 8.88744 | 24071 ft | 335 kts | 338° |
| 2026-05-07 11:08 | 54.76588 | 8.87308 | 24069 ft | 335 kts | 338° |
| 2026-05-07 11:08 | 54.78766 | 8.85850 | 24067 ft | 335 kts | 338° |
| 2026-05-07 11:08 | 54.80917 | 8.84408 | 24072 ft | 335 kts | 338° |
| 2026-05-07 11:09 | 54.83109 | 8.82938 | 24073 ft | 335 kts | 338° |
| 2026-05-07 11:09 | 54.85255 | 8.81497 | 24074 ft | 335 kts | 338° |
| 2026-05-07 11:09 | 54.87436 | 8.80030 | 24073 ft | 335 kts | 338° |
| 2026-05-07 11:09 | 54.89581 | 8.78586 | 24073 ft | 335 kts | 338° |
| 2026-05-07 11:10 | 54.91765 | 8.77115 | 24076 ft | 335 kts | 338° |
| 2026-05-07 11:10 | 54.93936 | 8.75652 | 24078 ft | 335 kts | 338° |
| 2026-05-07 11:10 | 54.96112 | 8.74183 | 24078 ft | 335 kts | 338° |
| 2026-05-07 11:10 | 54.98278 | 8.72720 | 24077 ft | 335 kts | 338° |
| 2026-05-07 11:11 | 55.00451 | 8.71251 | 24079 ft | 335 kts | 338° |
| 2026-05-07 11:11 | 55.02622 | 8.69781 | 24078 ft | 335 kts | 338° |
| 2026-05-07 11:11 | 55.04789 | 8.68313 | 24082 ft | 335 kts | 338° |
| 2026-05-07 11:11 | 55.06949 | 8.66847 | 24083 ft | 334 kts | 338° |
| 2026-05-07 11:12 | 55.09108 | 8.65379 | 24081 ft | 334 kts | 338° |
| 2026-05-07 11:12 | 55.11274 | 8.63905 | 24081 ft | 334 kts | 338° |
| 2026-05-07 11:12 | 55.13443 | 8.62427 | 24080 ft | 334 kts | 338° |
| 2026-05-07 11:12 | 55.15606 | 8.60951 | 24080 ft | 334 kts | 338° |
| 2026-05-07 11:13 | 55.17765 | 8.59475 | 24082 ft | 334 kts | 338° |
| 2026-05-07 11:13 | 55.19921 | 8.58002 | 24081 ft | 334 kts | 338° |
| 2026-05-07 11:13 | 55.22098 | 8.56510 | 24083 ft | 335 kts | 338° |
| 2026-05-07 11:13 | 55.24266 | 8.55024 | 24081 ft | 335 kts | 338° |
| 2026-05-07 11:14 | 55.26417 | 8.53548 | 24081 ft | 335 kts | 338° |
| 2026-05-07 11:14 | 55.28581 | 8.52062 | 24080 ft | 335 kts | 338° |
| 2026-05-07 11:14 | 55.30733 | 8.50581 | 24084 ft | 335 kts | 338° |
| 2026-05-07 11:14 | 55.32885 | 8.49098 | 24082 ft | 335 kts | 338° |
| 2026-05-07 11:15 | 55.35052 | 8.47603 | 24082 ft | 334 kts | 338° |
| 2026-05-07 11:15 | 55.37210 | 8.46114 | 24079 ft | 334 kts | 338° |
| 2026-05-07 11:15 | 55.39388 | 8.44609 | 24080 ft | 334 kts | 337° |
| 2026-05-07 11:15 | 55.41546 | 8.43115 | 24082 ft | 334 kts | 337° |
| 2026-05-07 11:16 | 55.43691 | 8.41630 | 24086 ft | 334 kts | 337° |
| 2026-05-07 11:16 | 55.45856 | 8.40126 | 24089 ft | 334 kts | 337° |
| 2026-05-07 11:16 | 55.48018 | 8.38623 | 24084 ft | 334 kts | 337° |
| 2026-05-07 11:16 | 55.50194 | 8.37108 | 24083 ft | 335 kts | 337° |
| 2026-05-07 11:17 | 55.52354 | 8.35603 | 24083 ft | 334 kts | 337° |
| 2026-05-07 11:17 | 55.54500 | 8.34106 | 24089 ft | 334 kts | 336° |
| 2026-05-07 11:17 | 55.56644 | 8.32608 | 24091 ft | 334 kts | 336° |
| 2026-05-07 11:17 | 55.58826 | 8.31082 | 24087 ft | 334 kts | 336° |
| 2026-05-07 11:18 | 55.60970 | 8.29578 | 24088 ft | 334 kts | 336° |
| 2026-05-07 11:18 | 55.63111 | 8.28012 | 24085 ft | 334 kts | 335° |
| 2026-05-07 11:18 | 55.65240 | 8.26428 | 24087 ft | 333 kts | 335° |
| 2026-05-07 11:18 | 55.67370 | 8.24843 | 24085 ft | 333 kts | 335° |
| 2026-05-07 11:19 | 55.69479 | 8.23272 | 24088 ft | 333 kts | 335° |
| 2026-05-07 11:19 | 55.71621 | 8.21676 | 24090 ft | 333 kts | 335° |
| 2026-05-07 11:19 | 55.73740 | 8.20098 | 24085 ft | 333 kts | 335° |
| 2026-05-07 11:19 | 55.75864 | 8.18515 | 24087 ft | 333 kts | 335° |
| 2026-05-07 11:20 | 55.77995 | 8.16925 | 24089 ft | 333 kts | 335° |
| 2026-05-07 11:20 | 55.80140 | 8.15323 | 24086 ft | 333 kts | 335° |
| 2026-05-07 11:20 | 55.82269 | 8.13731 | 24091 ft | 334 kts | 335° |
| 2026-05-07 11:20 | 55.84399 | 8.12138 | 24090 ft | 334 kts | 335° |
| 2026-05-07 11:21 | 55.86538 | 8.10536 | 24089 ft | 334 kts | 335° |
| 2026-05-07 11:21 | 55.88679 | 8.08932 | 24090 ft | 334 kts | 335° |
| 2026-05-07 11:21 | 55.90792 | 8.07346 | 24086 ft | 334 kts | 335° |
| 2026-05-07 11:21 | 55.92952 | 8.05725 | 24091 ft | 334 kts | 335° |
| 2026-05-07 11:22 | 55.95071 | 8.04132 | 24089 ft | 334 kts | 335° |
| 2026-05-07 11:22 | 55.97207 | 8.02524 | 24088 ft | 334 kts | 335° |
| 2026-05-07 11:22 | 55.99347 | 8.00912 | 24086 ft | 334 kts | 335° |
| 2026-05-07 11:22 | 56.01481 | 7.99301 | 24092 ft | 334 kts | 335° |
| 2026-05-07 11:23 | 56.03614 | 7.97690 | 24091 ft | 334 kts | 335° |
| 2026-05-07 11:23 | 56.05744 | 7.96079 | 24091 ft | 334 kts | 335° |
| 2026-05-07 11:23 | 56.07884 | 7.94458 | 24090 ft | 334 kts | 335° |
| 2026-05-07 11:23 | 56.10007 | 7.92848 | 24091 ft | 334 kts | 335° |
| 2026-05-07 11:24 | 56.12151 | 7.91221 | 24090 ft | 334 kts | 335° |
| 2026-05-07 11:24 | 56.14290 | 7.89596 | 24091 ft | 334 kts | 335° |
| 2026-05-07 11:24 | 56.16409 | 7.87983 | 24089 ft | 335 kts | 335° |
| 2026-05-07 11:24 | 56.18545 | 7.86354 | 24091 ft | 335 kts | 335° |
| 2026-05-07 11:25 | 56.20701 | 7.84710 | 24091 ft | 335 kts | 335° |
| 2026-05-07 11:25 | 56.22841 | 7.83076 | 24092 ft | 335 kts | 335° |
| 2026-05-07 11:25 | 56.24956 | 7.81459 | 24090 ft | 335 kts | 335° |
| 2026-05-07 11:25 | 56.27094 | 7.79822 | 24091 ft | 335 kts | 335° |
| 2026-05-07 11:26 | 56.29231 | 7.78184 | 24091 ft | 335 kts | 335° |
| 2026-05-07 11:26 | 56.31359 | 7.76550 | 24091 ft | 335 kts | 335° |
| 2026-05-07 11:26 | 56.33517 | 7.74892 | 24090 ft | 335 kts | 335° |
| 2026-05-07 11:26 | 56.35655 | 7.73247 | 24091 ft | 335 kts | 335° |
| 2026-05-07 11:27 | 56.37765 | 7.71622 | 24090 ft | 335 kts | 335° |
| 2026-05-07 11:27 | 56.39904 | 7.69973 | 24091 ft | 335 kts | 335° |
| 2026-05-07 11:27 | 56.42038 | 7.68324 | 24089 ft | 335 kts | 335° |
| 2026-05-07 11:27 | 56.44188 | 7.66663 | 24090 ft | 335 kts | 335° |
| 2026-05-07 11:28 | 56.46305 | 7.65023 | 24090 ft | 335 kts | 335° |
| 2026-05-07 11:28 | 56.48443 | 7.63367 | 24090 ft | 335 kts | 335° |
| 2026-05-07 11:28 | 56.50561 | 7.61724 | 24090 ft | 335 kts | 335° |
| 2026-05-07 11:28 | 56.52691 | 7.60069 | 24090 ft | 335 kts | 335° |
| 2026-05-07 11:29 | 56.54839 | 7.58398 | 24090 ft | 334 kts | 335° |
| 2026-05-07 11:29 | 56.56974 | 7.56736 | 24090 ft | 334 kts | 335° |
| 2026-05-07 11:29 | 56.59100 | 7.55078 | 24089 ft | 334 kts | 335° |
| 2026-05-07 11:29 | 56.61224 | 7.53419 | 24089 ft | 334 kts | 335° |
| 2026-05-07 11:30 | 56.63356 | 7.51752 | 24092 ft | 334 kts | 334° |
| 2026-05-07 11:30 | 56.65469 | 7.50099 | 24092 ft | 334 kts | 334° |
| 2026-05-07 11:30 | 56.67601 | 7.48428 | 24091 ft | 334 kts | 334° |
| 2026-05-07 11:30 | 56.69732 | 7.46757 | 24090 ft | 334 kts | 334° |
| 2026-05-07 11:31 | 56.71874 | 7.45074 | 24092 ft | 334 kts | 334° |
| 2026-05-07 11:31 | 56.73995 | 7.43406 | 24091 ft | 334 kts | 335° |
| 2026-05-07 11:31 | 56.76116 | 7.41736 | 24091 ft | 334 kts | 335° |
| 2026-05-07 11:31 | 56.78231 | 7.40067 | 24091 ft | 334 kts | 335° |
| 2026-05-07 11:32 | 56.82490 | 7.36702 | 24090 ft | 334 kts | 335° |
| 2026-05-07 11:32 | 56.84605 | 7.35029 | 24091 ft | 334 kts | 335° |
| 2026-05-07 11:32 | 56.86722 | 7.33351 | 24091 ft | 334 kts | 334° |
| 2026-05-07 11:33 | 56.88841 | 7.31670 | 24092 ft | 334 kts | 334° |
| 2026-05-07 11:33 | 56.90969 | 7.29980 | 24092 ft | 334 kts | 334° |
| 2026-05-07 11:33 | 56.93103 | 7.28282 | 24091 ft | 334 kts | 334° |
| 2026-05-07 11:33 | 56.95204 | 7.26609 | 24089 ft | 334 kts | 334° |
| 2026-05-07 11:34 | 56.97346 | 7.24901 | 24092 ft | 334 kts | 334° |
| 2026-05-07 11:34 | 56.99453 | 7.23226 | 24091 ft | 334 kts | 334° |
| 2026-05-07 11:34 | 57.01630 | 7.21820 | 24093 ft | 335 kts | 340° |
| 2026-05-07 11:34 | 57.03875 | 7.20595 | 24092 ft | 335 kts | 340° |
| 2026-05-07 11:35 | 57.06116 | 7.19380 | 24090 ft | 335 kts | 340° |
| 2026-05-07 11:35 | 57.08320 | 7.18181 | 24092 ft | 335 kts | 340° |
| 2026-05-07 11:35 | 57.10552 | 7.16963 | 24091 ft | 335 kts | 340° |
| 2026-05-07 11:35 | 57.12783 | 7.15741 | 24092 ft | 335 kts | 340° |
| 2026-05-07 11:36 | 57.15015 | 7.14516 | 24092 ft | 335 kts | 340° |
| 2026-05-07 11:36 | 57.17234 | 7.13293 | 24090 ft | 335 kts | 340° |
| 2026-05-07 11:36 | 57.19469 | 7.12061 | 24092 ft | 335 kts | 340° |
| 2026-05-07 11:36 | 57.21681 | 7.10839 | 24092 ft | 335 kts | 340° |
| 2026-05-07 11:37 | 57.23914 | 7.09603 | 24094 ft | 335 kts | 340° |
| 2026-05-07 11:37 | 57.26155 | 7.08361 | 24090 ft | 335 kts | 340° |
| 2026-05-07 11:37 | 57.28352 | 7.07141 | 24092 ft | 335 kts | 340° |
| 2026-05-07 11:37 | 57.30563 | 7.05911 | 24092 ft | 335 kts | 340° |
| 2026-05-07 11:38 | 57.32787 | 7.04673 | 24095 ft | 334 kts | 340° |
| 2026-05-07 11:38 | 57.35013 | 7.03432 | 24091 ft | 334 kts | 340° |
| 2026-05-07 11:38 | 57.37228 | 7.02195 | 24091 ft | 334 kts | 340° |
| 2026-05-07 11:38 | 57.39460 | 7.00947 | 24090 ft | 334 kts | 340° |
| 2026-05-07 11:39 | 57.41666 | 6.99712 | 24093 ft | 334 kts | 340° |
| 2026-05-07 11:39 | 57.43899 | 6.98460 | 24091 ft | 334 kts | 340° |
| 2026-05-07 11:39 | 57.46109 | 6.97220 | 24091 ft | 334 kts | 340° |
| 2026-05-07 11:39 | 57.48322 | 6.95977 | 24091 ft | 333 kts | 340° |
| 2026-05-07 11:40 | 57.50542 | 6.94727 | 24093 ft | 333 kts | 340° |
| 2026-05-07 11:40 | 57.52743 | 6.93487 | 24094 ft | 333 kts | 339° |
| 2026-05-07 11:40 | 57.54958 | 6.92238 | 24090 ft | 333 kts | 339° |
| 2026-05-07 11:40 | 57.57175 | 6.90985 | 24090 ft | 333 kts | 339° |
| 2026-05-07 11:41 | 57.59372 | 6.89743 | 24092 ft | 333 kts | 339° |
| 2026-05-07 11:41 | 57.61562 | 6.88502 | 24091 ft | 333 kts | 339° |
| 2026-05-07 11:41 | 57.63771 | 6.87250 | 24091 ft | 333 kts | 339° |
| 2026-05-07 11:41 | 57.65998 | 6.85985 | 24090 ft | 333 kts | 339° |
| 2026-05-07 11:42 | 57.68188 | 6.84741 | 24093 ft | 333 kts | 339° |
| 2026-05-07 11:42 | 57.70398 | 6.83483 | 24093 ft | 332 kts | 339° |
| 2026-05-07 11:42 | 57.72607 | 6.82224 | 24093 ft | 332 kts | 339° |
| 2026-05-07 11:42 | 57.74809 | 6.80967 | 24093 ft | 332 kts | 339° |
| 2026-05-07 11:43 | 57.77020 | 6.79704 | 24092 ft | 332 kts | 339° |
| 2026-05-07 11:43 | 57.79210 | 6.78451 | 24091 ft | 332 kts | 339° |
| 2026-05-07 11:43 | 57.81417 | 6.77187 | 24093 ft | 332 kts | 339° |
| 2026-05-07 11:43 | 57.83624 | 6.75921 | 24092 ft | 332 kts | 339° |
| 2026-05-07 11:44 | 57.85816 | 6.74662 | 24091 ft | 332 kts | 339° |
| 2026-05-07 11:44 | 57.88012 | 6.73399 | 24090 ft | 332 kts | 339° |
| 2026-05-07 11:44 | 57.90225 | 6.72125 | 24091 ft | 332 kts | 339° |
| 2026-05-07 11:44 | 57.92433 | 6.70852 | 24094 ft | 332 kts | 339° |
| 2026-05-07 11:45 | 57.94627 | 6.69586 | 24091 ft | 332 kts | 339° |
| 2026-05-07 11:45 | 57.96829 | 6.68314 | 24090 ft | 331 kts | 339° |
| 2026-05-07 11:45 | 57.99024 | 6.67044 | 24090 ft | 331 kts | 339° |
| 2026-05-07 11:45 | 58.01219 | 6.65772 | 24091 ft | 331 kts | 339° |
| 2026-05-07 11:46 | 58.03411 | 6.64499 | 24090 ft | 331 kts | 339° |
| 2026-05-07 11:46 | 58.05590 | 6.63234 | 24089 ft | 331 kts | 339° |
| 2026-05-07 11:46 | 58.07801 | 6.61947 | 24088 ft | 331 kts | 339° |
| 2026-05-07 11:46 | 58.09972 | 6.60683 | 24087 ft | 330 kts | 339° |
| 2026-05-07 11:47 | 58.12167 | 6.59403 | 24087 ft | 330 kts | 339° |
| 2026-05-07 11:47 | 58.14357 | 6.58124 | 24088 ft | 330 kts | 339° |
| 2026-05-07 11:47 | 58.16568 | 6.56832 | 24085 ft | 330 kts | 338° |
| 2026-05-07 11:47 | 58.18739 | 6.55561 | 24084 ft | 330 kts | 339° |
| 2026-05-07 11:48 | 58.20937 | 6.54272 | 24084 ft | 330 kts | 339° |
| 2026-05-07 11:48 | 58.23119 | 6.52991 | 24086 ft | 330 kts | 338° |
| 2026-05-07 11:48 | 58.25314 | 6.51701 | 24087 ft | 330 kts | 338° |
| 2026-05-07 11:48 | 58.27487 | 6.50422 | 24085 ft | 330 kts | 338° |
| 2026-05-07 11:49 | 58.29670 | 6.49136 | 24087 ft | 330 kts | 338° |
| 2026-05-07 11:49 | 58.31845 | 6.47853 | 24085 ft | 329 kts | 338° |
| 2026-05-07 11:49 | 58.34025 | 6.46565 | 24085 ft | 329 kts | 338° |
| 2026-05-07 11:49 | 58.36204 | 6.45276 | 24086 ft | 329 kts | 338° |
| 2026-05-07 11:50 | 58.38402 | 6.43974 | 24084 ft | 329 kts | 338° |
| 2026-05-07 11:50 | 58.40573 | 6.42686 | 24081 ft | 329 kts | 338° |
| 2026-05-07 11:50 | 58.42739 | 6.41400 | 24082 ft | 328 kts | 338° |
| 2026-05-07 11:50 | 58.44918 | 6.40104 | 24082 ft | 328 kts | 338° |
| 2026-05-07 11:51 | 58.47090 | 6.38811 | 24078 ft | 328 kts | 338° |
| 2026-05-07 11:51 | 58.49251 | 6.37523 | 24076 ft | 328 kts | 338° |
| 2026-05-07 11:51 | 58.51442 | 6.36214 | 24077 ft | 328 kts | 338° |
| 2026-05-07 11:51 | 58.53617 | 6.34914 | 24071 ft | 328 kts | 337° |
| 2026-05-07 11:52 | 58.55775 | 6.33623 | 24066 ft | 328 kts | 337° |
| 2026-05-07 11:52 | 58.57960 | 6.32314 | 24066 ft | 328 kts | 337° |
| 2026-05-07 11:52 | 58.60131 | 6.31011 | 24058 ft | 328 kts | 337° |
| 2026-05-07 11:52 | 58.62299 | 6.29708 | 24055 ft | 328 kts | 337° |
| 2026-05-07 11:53 | 58.64470 | 6.28402 | 24054 ft | 328 kts | 337° |
| 2026-05-07 11:53 | 58.66617 | 6.27109 | 24052 ft | 327 kts | 337° |
| 2026-05-07 11:53 | 58.68794 | 6.25796 | 24053 ft | 327 kts | 337° |
| 2026-05-07 11:53 | 58.70952 | 6.24493 | 24049 ft | 327 kts | 337° |
| 2026-05-07 11:54 | 58.73111 | 6.23187 | 24044 ft | 326 kts | 337° |
| 2026-05-07 11:54 | 58.75277 | 6.21876 | 24050 ft | 326 kts | 336° |
| 2026-05-07 11:54 | 58.77438 | 6.20565 | 24057 ft | 326 kts | 337° |
| 2026-05-07 11:54 | 58.79577 | 6.19267 | 24059 ft | 326 kts | 337° |
| 2026-05-07 11:55 | 58.81748 | 6.17946 | 24062 ft | 326 kts | 337° |
| 2026-05-07 11:55 | 58.83891 | 6.16642 | 24072 ft | 326 kts | 337° |
| 2026-05-07 11:55 | 58.86069 | 6.15314 | 24073 ft | 326 kts | 336° |
| 2026-05-07 11:55 | 58.88205 | 6.14011 | 24072 ft | 325 kts | 336° |
| 2026-05-07 11:56 | 58.90377 | 6.12684 | 24076 ft | 325 kts | 336° |
| 2026-05-07 11:56 | 58.92504 | 6.11383 | 24083 ft | 324 kts | 336° |
| 2026-05-07 11:56 | 58.94664 | 6.10059 | 24088 ft | 324 kts | 336° |
| 2026-05-07 11:56 | 58.96816 | 6.08739 | 24089 ft | 324 kts | 336° |
| 2026-05-07 11:57 | 58.98937 | 6.07436 | 24085 ft | 324 kts | 336° |
| 2026-05-07 11:57 | 59.01078 | 6.06118 | 24097 ft | 324 kts | 336° |
| 2026-05-07 11:57 | 59.03240 | 6.04787 | 24096 ft | 324 kts | 336° |
| 2026-05-07 11:57 | 59.05371 | 6.03472 | 24091 ft | 324 kts | 336° |
| 2026-05-07 11:58 | 59.07525 | 6.02212 | 24086 ft | 327 kts | 339° |
| 2026-05-07 11:58 | 59.09748 | 6.01298 | 24091 ft | 329 kts | 343° |
| 2026-05-07 11:58 | 59.11999 | 6.00458 | 24090 ft | 329 kts | 343° |
| 2026-05-07 11:58 | 59.14224 | 5.99627 | 24083 ft | 329 kts | 342° |
| 2026-05-07 11:59 | 59.16483 | 5.98780 | 24084 ft | 328 kts | 342° |
| 2026-05-07 11:59 | 59.18718 | 5.97938 | 24077 ft | 328 kts | 342° |
| 2026-05-07 11:59 | 59.20929 | 5.97101 | 24060 ft | 329 kts | 342° |
| 2026-05-07 11:59 | 59.23185 | 5.96242 | 23753 ft | 327 kts | 342° |
| 2026-05-07 12:00 | 59.25397 | 5.95397 | 23379 ft | 325 kts | 342° |
| 2026-05-07 12:00 | 59.27592 | 5.94556 | 22977 ft | 321 kts | 342° |
| 2026-05-07 12:00 | 59.29773 | 5.93718 | 22573 ft | 318 kts | 342° |
| 2026-05-07 12:00 | 59.31921 | 5.92892 | 22171 ft | 316 kts | 342° |
| 2026-05-07 12:01 | 59.34080 | 5.92061 | 21773 ft | 313 kts | 342° |
| 2026-05-07 12:01 | 59.36209 | 5.91240 | 21374 ft | 312 kts | 343° |
| 2026-05-07 12:01 | 59.38294 | 5.90436 | 20984 ft | 310 kts | 343° |
| 2026-05-07 12:01 | 59.40402 | 5.89621 | 20591 ft | 308 kts | 343° |
| 2026-05-07 12:02 | 59.42498 | 5.88812 | 20201 ft | 307 kts | 343° |
| 2026-05-07 12:02 | 59.44589 | 5.88240 | 19907 ft | 306 kts | 349° |
| 2026-05-07 12:02 | 59.46708 | 5.87895 | 19638 ft | 301 kts | 349° |
| 2026-05-07 12:02 | 59.48753 | 5.87575 | 19389 ft | 297 kts | 349° |
| 2026-05-07 12:03 | 59.50796 | 5.87254 | 19141 ft | 293 kts | 349° |
| 2026-05-07 12:03 | 59.52826 | 5.86931 | 18894 ft | 290 kts | 349° |
| 2026-05-07 12:03 | 59.54800 | 5.86614 | 18649 ft | 287 kts | 349° |
| 2026-05-07 12:03 | 59.56795 | 5.86292 | 18406 ft | 284 kts | 349° |
| 2026-05-07 12:04 | 59.58737 | 5.85977 | 18170 ft | 281 kts | 349° |
| 2026-05-07 12:04 | 59.60687 | 5.85659 | 17929 ft | 279 kts | 349° |
| 2026-05-07 12:04 | 59.62611 | 5.85344 | 17688 ft | 277 kts | 349° |
| 2026-05-07 12:04 | 59.64514 | 5.85032 | 17449 ft | 275 kts | 350° |
| 2026-05-07 12:05 | 59.66394 | 5.84724 | 17225 ft | 273 kts | 349° |
| 2026-05-07 12:05 | 59.68290 | 5.84411 | 16990 ft | 271 kts | 350° |
| 2026-05-07 12:05 | 59.70161 | 5.84103 | 16762 ft | 270 kts | 350° |
| 2026-05-07 12:05 | 59.72010 | 5.83798 | 16548 ft | 268 kts | 350° |
| 2026-05-07 12:06 | 59.73862 | 5.83491 | 16309 ft | 267 kts | 350° |
| 2026-05-07 12:06 | 59.75716 | 5.83184 | 16082 ft | 266 kts | 350° |
| 2026-05-07 12:06 | 59.77553 | 5.82880 | 15851 ft | 265 kts | 350° |
| 2026-05-07 12:06 | 59.79365 | 5.82579 | 15626 ft | 264 kts | 350° |
| 2026-05-07 12:07 | 59.81181 | 5.82277 | 15391 ft | 263 kts | 351° |
| 2026-05-07 12:07 | 59.82996 | 5.81855 | 15164 ft | 260 kts | 346° |
| 2026-05-07 12:07 | 59.84770 | 5.81229 | 14957 ft | 258 kts | 345° |
| 2026-05-07 12:07 | 59.86511 | 5.80595 | 14736 ft | 257 kts | 345° |
| 2026-05-07 12:08 | 59.88260 | 5.79958 | 14524 ft | 256 kts | 345° |
| 2026-05-07 12:08 | 59.89997 | 5.79327 | 14313 ft | 255 kts | 345° |
| 2026-05-07 12:08 | 59.91735 | 5.78697 | 14073 ft | 254 kts | 346° |
| 2026-05-07 12:08 | 59.93468 | 5.78069 | 13870 ft | 253 kts | 345° |
| 2026-05-07 12:09 | 59.95208 | 5.77439 | 13640 ft | 253 kts | 346° |
| 2026-05-07 12:09 | 59.96927 | 5.76816 | 13432 ft | 252 kts | 346° |
| 2026-05-07 12:09 | 59.98634 | 5.76198 | 13224 ft | 251 kts | 346° |
| 2026-05-07 12:09 | 60.00343 | 5.75578 | 13013 ft | 251 kts | 346° |
| 2026-05-07 12:10 | 60.02068 | 5.74953 | 12781 ft | 250 kts | 346° |
| 2026-05-07 12:10 | 60.03770 | 5.74336 | 12577 ft | 249 kts | 346° |
| 2026-05-07 12:10 | 60.05467 | 5.73719 | 12364 ft | 249 kts | 347° |
| 2026-05-07 12:10 | 60.07162 | 5.73103 | 12153 ft | 249 kts | 346° |
| 2026-05-07 12:11 | 60.08874 | 5.72481 | 11932 ft | 249 kts | 347° |
| 2026-05-07 12:11 | 60.10555 | 5.71869 | 11725 ft | 248 kts | 347° |
| 2026-05-07 12:11 | 60.12266 | 5.71245 | 11509 ft | 248 kts | 347° |
| 2026-05-07 12:11 | 60.13953 | 5.70641 | 11299 ft | 248 kts | 348° |
| 2026-05-07 12:12 | 60.15655 | 5.70145 | 11083 ft | 248 kts | 350° |
| 2026-05-07 12:12 | 60.17355 | 5.69687 | 10875 ft | 248 kts | 351° |
| 2026-05-07 12:12 | 60.19054 | 5.69225 | 10657 ft | 247 kts | 351° |
| 2026-05-07 12:12 | 60.20764 | 5.68757 | 10442 ft | 247 kts | 350° |
| 2026-05-07 12:13 | 60.22460 | 5.68290 | 10236 ft | 247 kts | 351° |
| 2026-05-07 12:13 | 60.24146 | 5.67823 | 10026 ft | 247 kts | 350° |
| 2026-05-07 12:13 | 60.25836 | 5.67353 | 9812 ft | 246 kts | 351° |
| 2026-05-07 12:13 | 60.27549 | 5.66875 | 9600 ft | 246 kts | 351° |
| 2026-05-07 12:14 | 60.29220 | 5.66407 | 9392 ft | 246 kts | 351° |
| 2026-05-07 12:14 | 60.30909 | 5.65933 | 9180 ft | 246 kts | 351° |
| 2026-05-07 12:14 | 60.32619 | 5.65452 | 8968 ft | 246 kts | 351° |
| 2026-05-07 12:14 | 60.34296 | 5.64980 | 8760 ft | 246 kts | 351° |
| 2026-05-07 12:15 | 60.35998 | 5.64500 | 8544 ft | 246 kts | 351° |
| 2026-05-07 12:15 | 60.37673 | 5.64027 | 8331 ft | 246 kts | 351° |
| 2026-05-07 12:15 | 60.39378 | 5.63545 | 8121 ft | 248 kts | 352° |
| 2026-05-07 12:15 | 60.41091 | 5.63062 | 7905 ft | 249 kts | 352° |
| 2026-05-07 12:16 | 60.42798 | 5.62579 | 7691 ft | 251 kts | 352° |
| 2026-05-07 12:16 | 60.44539 | 5.62086 | 7478 ft | 252 kts | 352° |
| 2026-05-07 12:16 | 60.46262 | 5.61597 | 7261 ft | 253 kts | 352° |
| 2026-05-07 12:16 | 60.47989 | 5.61186 | 7134 ft | 249 kts | 357° |
| 2026-05-07 12:17 | 60.49690 | 5.61164 | 7096 ft | 238 kts | 1° |
| 2026-05-07 12:17 | 60.51292 | 5.61217 | 7085 ft | 227 kts | 1° |
| 2026-05-07 12:17 | 60.52833 | 5.61267 | 7069 ft | 216 kts | 0° |
| 2026-05-07 12:17 | 60.54289 | 5.60832 | 6982 ft | 207 kts | 343° |
| 2026-05-07 12:18 | 60.55623 | 5.59902 | 6889 ft | 200 kts | 341° |
| 2026-05-07 12:18 | 60.56913 | 5.58974 | 6794 ft | 194 kts | 341° |
| 2026-05-07 12:18 | 60.58149 | 5.58083 | 6698 ft | 187 kts | 341° |
| 2026-05-07 12:18 | 60.59304 | 5.56984 | 6597 ft | 178 kts | 325° |
| 2026-05-07 12:19 | 60.60250 | 5.55457 | 6524 ft | 176 kts | 320° |
| 2026-05-07 12:19 | 60.61218 | 5.53829 | 6447 ft | 185 kts | 321° |
| 2026-05-07 12:19 | 60.62242 | 5.52108 | 6354 ft | 194 kts | 321° |
| 2026-05-07 12:19 | 60.63288 | 5.50309 | 6245 ft | 204 kts | 315° |
| 2026-05-07 12:20 | 60.64148 | 5.47940 | 6153 ft | 211 kts | 301° |
| 2026-05-07 12:20 | 60.64896 | 5.45321 | 6038 ft | 217 kts | 300° |
| 2026-05-07 12:20 | 60.65658 | 5.42633 | 5915 ft | 223 kts | 300° |
| 2026-05-07 12:20 | 60.66396 | 5.39783 | 5793 ft | 227 kts | 290° |
| 2026-05-07 12:21 | 60.66737 | 5.36654 | 5691 ft | 230 kts | 278° |
| 2026-05-07 12:21 | 60.66971 | 5.33389 | 5562 ft | 236 kts | 276° |
| 2026-05-07 12:21 | 60.66839 | 5.30163 | 5259 ft | 225 kts | 243° |
| 2026-05-07 12:21 | 60.65787 | 5.28088 | 5159 ft | 203 kts | 198° |
| 2026-05-07 12:22 | 60.64453 | 5.27664 | 5086 ft | 192 kts | 182° |
| 2026-05-07 12:22 | 60.63133 | 5.27548 | 5000 ft | 190 kts | 180° |
| 2026-05-07 12:22 | 60.61821 | 5.27499 | 4906 ft | 189 kts | 179° |
| 2026-05-07 12:22 | 60.60504 | 5.27495 | 4810 ft | 187 kts | 178° |
| 2026-05-07 12:23 | 60.59211 | 5.27522 | 4717 ft | 186 kts | 178° |
| 2026-05-07 12:23 | 60.57920 | 5.27571 | 4624 ft | 184 kts | 177° |
| 2026-05-07 12:23 | 60.56640 | 5.27629 | 4523 ft | 183 kts | 177° |
| 2026-05-07 12:23 | 60.55387 | 5.27700 | 4434 ft | 182 kts | 176° |
| 2026-05-07 12:24 | 60.54127 | 5.27789 | 4342 ft | 180 kts | 176° |
| 2026-05-07 12:24 | 60.52870 | 5.27883 | 4253 ft | 179 kts | 176° |
| 2026-05-07 12:24 | 60.51643 | 5.27941 | 4127 ft | 180 kts | 182° |
| 2026-05-07 12:24 | 60.50532 | 5.26855 | 3959 ft | 181 kts | 229° |
| 2026-05-07 12:25 | 60.49860 | 5.24697 | 3813 ft | 184 kts | 238° |
| 2026-05-07 12:25 | 60.49226 | 5.22412 | 3637 ft | 188 kts | 239° |
| 2026-05-07 12:25 | 60.48584 | 5.20086 | 3452 ft | 192 kts | 239° |
| 2026-05-07 12:25 | 60.47912 | 5.17726 | 3239 ft | 195 kts | 233° |
| 2026-05-07 12:26 | 60.46851 | 5.16188 | 3041 ft | 188 kts | 188° |
| 2026-05-07 12:26 | 60.45586 | 5.16444 | 2911 ft | 183 kts | 166° |
| 2026-05-07 12:26 | 60.44335 | 5.16891 | 2793 ft | 182 kts | 172° |
| 2026-05-07 12:26 | 60.43092 | 5.17205 | 2674 ft | 180 kts | 171° |
| 2026-05-07 12:27 | 60.41884 | 5.17600 | 2503 ft | 172 kts | 169° |
| 2026-05-07 12:27 | 60.40715 | 5.17989 | 2275 ft | 167 kts | 170° |
| 2026-05-07 12:27 | 60.39582 | 5.18361 | 2026 ft | 164 kts | 169° |
| 2026-05-07 12:27 | 60.38490 | 5.18728 | 1824 ft | 156 kts | 169° |
| 2026-05-07 12:28 | 60.37428 | 5.19085 | 1603 ft | 151 kts | 170° |
| 2026-05-07 12:28 | 60.36418 | 5.19418 | 1494 ft | 146 kts | 170° |
| 2026-05-07 12:28 | 60.35424 | 5.19752 | 1219 ft | 139 kts | 170° |
| 2026-05-07 12:28 | 60.34498 | 5.20070 | 1033 ft | 136 kts | 171° |
| 2026-05-07 12:29 | 60.33548 | 5.20377 | 847 ft | 140 kts | 171° |
| 2026-05-07 12:29 | 60.32594 | 5.20732 | 641 ft | 143 kts | 171° |
| 2026-05-07 12:29 | 60.31627 | 5.21058 | 457 ft | 140 kts | 173° |
| 2026-05-07 12:29 | 60.30665 | 5.21364 | 254 ft | 139 kts | 172° |
| 2026-05-07 12:30 | 60.29742 | 5.21671 | 147 ft | 125 kts | 171° |
| 2026-05-07 12:30 | 60.29122 | 5.21887 | 161 ft | 57 kts | 170° |
| 2026-05-07 12:30 | 60.28932 | 5.21955 | 163 ft | 14 kts | 154° |
| 2026-05-07 12:30 | 60.28909 | 5.22076 | 165 ft | 7 kts | 82° |
| 2026-05-07 12:31 | 60.28916 | 5.22164 | 167 ft | 3 kts | 80° |
| 2026-05-07 12:31 | 60.28920 | 5.22203 | 167 ft | 1 kts | 81° |
| 2026-05-07 12:31 | 60.28926 | 5.22276 | 169 ft | 10 kts | 80° |
| 2026-05-07 12:31 | 60.28949 | 5.22388 | 171 ft | 8 kts | 14° |
| 2026-05-07 12:32 | 60.29008 | 5.22372 | 171 ft | 8 kts | 2° |
| 2026-05-07 12:32 | 60.29029 | 5.22451 | 172 ft | 5 kts | 80° |
| 2026-05-07 12:32 | 60.29040 | 5.22579 | 175 ft | 14 kts | 81° |
| 2026-05-07 12:32 | 60.29042 | 5.22753 | 178 ft | 10 kts | 98° |
| 2026-05-07 12:33 | 60.29080 | 5.22875 | 180 ft | 0 kts | 45° |